Clearwater, Minnesota
Current Conditions -  °F | °C
As of 6:53 PM on Friday 24 Oct 2014 (Local Time) from KSTC Reporting Station
Clear Clear  
Wind Chill: 63°   Ceiling: Unl
Heat Index: 63°   Visibility: 10mi
Dew Point: 47°   Wind: 5mph
Humidity: 56%   Direction: 210°SSW
Pressure: 29.83"   Gusts: NA
Location:  45.42°N, 94.05°W
Report Text: KSTC 242353Z 21004KT 10SM CLR 17/08 A2983 RMK AO2 SLP111 T01720083 10222 20172 53004
Loading
Personal Weather Stations






























Interactive Weather Map
Tropical Storm Tracking
New forecast layout! Learn more

10-Day Weather Forecast

Advertisements
Track Severe Weather on mobile